createdAt,value
2019-03-06T00:01:29.584Z,61.25
2019-03-06T00:04:05.689Z,60.20
2019-03-06T00:06:40.081Z,59.25
2019-03-06T00:09:14.783Z,60.88
2019-03-06T00:11:48.849Z,70.25
2019-03-06T00:14:23.040Z,62.05
2019-03-06T00:16:57.368Z,59.88
2019-03-06T00:19:32.595Z,55.12
2019-03-06T00:22:09.494Z,56.70
2019-03-06T00:24:43.786Z,57.80
2019-03-06T00:27:17.709Z,56.23
2019-03-06T00:29:52.022Z,59.93
2019-03-06T00:32:26.107Z,60.45
2019-03-06T00:35:01.975Z,57.40
2019-03-06T00:37:37.305Z,55.23
2019-03-06T00:40:19.830Z,61.48
2019-03-06T00:42:54.178Z,58.25
2019-03-06T00:45:28.762Z,55.58
2019-03-06T00:48:03.180Z,56.30
2019-03-06T00:50:38.717Z,59.05
2019-03-06T00:53:13.121Z,60.35
2019-03-06T00:55:47.601Z,52.27
2019-03-06T00:58:21.947Z,54.48
2019-03-06T01:00:57.756Z,60.00
2019-03-06T01:03:33.116Z,59.83
2019-03-06T01:06:07.466Z,55.55
2019-03-06T01:08:42.957Z,57.78
2019-03-06T01:11:17.230Z,60.40
2019-03-06T01:13:51.490Z,63.55
2019-03-06T01:16:25.981Z,74.90
2019-03-06T01:19:00.162Z,72.22
2019-03-06T01:21:34.456Z,65.95
2019-03-06T01:24:08.886Z,73.83
2019-03-06T01:26:43.023Z,68.87
2019-03-06T01:29:17.381Z,62.78
2019-03-06T01:31:51.879Z,60.23
2019-03-06T01:34:51.112Z,66.22
2019-03-06T01:37:38.867Z,96.55
2019-03-06T01:40:21.735Z,85.70
2019-03-06T01:43:10.761Z,70.87
2019-03-06T01:45:45.024Z,74.60
2019-03-06T01:48:19.625Z,82.75
2019-03-06T01:50:54.142Z,74.42
2019-03-06T01:53:28.140Z,73.70
2019-03-06T01:56:02.627Z,73.67
2019-03-06T01:58:37.091Z,74.62
2019-03-06T02:01:12.849Z,71.97
2019-03-06T02:03:47.057Z,80.03
2019-03-06T02:06:21.723Z,76.00
2019-03-06T02:08:57.009Z,68.45
2019-03-06T02:11:31.299Z,66.92
2019-03-06T02:14:06.047Z,68.07
2019-03-06T02:16:40.474Z,65.37
2019-03-06T02:19:14.968Z,69.07
2019-03-06T02:21:49.242Z,73.87
2019-03-06T02:24:23.516Z,61.28
2019-03-06T02:26:57.828Z,65.15
2019-03-06T02:29:32.170Z,62.73
2019-03-06T02:32:06.536Z,60.58
2019-03-06T02:34:40.905Z,66.92
2019-03-06T02:37:15.276Z,77.40
2019-03-06T02:39:49.580Z,65.25
2019-03-06T02:42:23.792Z,68.47
2019-03-06T02:44:59.049Z,60.55
2019-03-06T02:47:33.191Z,60.12
2019-03-06T02:50:07.514Z,65.15
2019-03-06T02:52:41.874Z,61.33
2019-03-06T02:55:16.510Z,62.40
2019-03-06T02:58:09.310Z,69.03
2019-03-06T03:04:03.692Z,66.82
2019-03-06T03:06:42.279Z,71.85
2019-03-06T03:09:21.447Z,71.92
2019-03-06T03:11:55.801Z,70.87
2019-03-06T03:14:30.088Z,68.22
2019-03-06T03:17:06.629Z,78.87
2019-03-06T03:19:40.975Z,61.58
2019-03-06T03:22:15.203Z,69.40
2019-03-06T03:24:49.440Z,67.67
2019-03-06T03:27:23.695Z,73.05
2019-03-06T03:29:58.231Z,63.13
2019-03-06T03:32:32.737Z,64.70
2019-03-06T03:35:07.247Z,65.12
2019-03-06T03:37:41.708Z,68.60
2019-03-06T03:40:18.131Z,63.80
2019-03-06T03:42:52.800Z,74.27
2019-03-06T03:45:27.169Z,85.95
2019-03-06T03:48:01.647Z,91.55
2019-03-06T03:50:36.035Z,74.35
2019-03-06T03:53:10.312Z,79.53
2019-03-06T03:55:45.046Z,66.60
2019-03-06T03:58:19.719Z,74.32
2019-03-06T04:00:53.953Z,74.15
2019-03-06T04:03:28.716Z,71.65
2019-03-06T04:06:02.915Z,74.85
2019-03-06T04:08:38.467Z,88.70
2019-03-06T04:11:12.802Z,122.85
2019-03-06T04:13:47.125Z,124.82
2019-03-06T04:16:22.525Z,125.58
2019-03-06T04:18:56.873Z,133.50
2019-03-06T04:21:31.266Z,139.88
2019-03-06T04:24:05.834Z,147.68
2019-03-06T04:26:40.090Z,157.52
2019-03-06T04:29:15.597Z,146.85
2019-03-06T04:31:51.180Z,160.72
2019-03-06T04:34:25.305Z,150.75
2019-03-06T04:36:59.619Z,158.07
2019-03-06T04:39:33.972Z,160.40
2019-03-06T04:42:08.098Z,135.48
2019-03-06T04:44:42.296Z,157.40
2019-03-06T04:47:16.400Z,142.70
2019-03-06T04:49:52.941Z,137.57
2019-03-06T04:52:26.515Z,147.17
2019-03-06T04:55:00.624Z,156.67
2019-03-06T04:57:34.867Z,149.75
2019-03-06T05:00:10.129Z,174.95
2019-03-06T05:02:44.544Z,255.50
2019-03-06T05:05:18.836Z,247.02
2019-03-06T05:07:54.047Z,227.80
2019-03-06T05:10:30.210Z,199.80
2019-03-06T05:13:04.560Z,204.75
2019-03-06T05:15:38.644Z,174.27
2019-03-06T05:18:32.803Z,172.93
2019-03-06T05:21:07.527Z,185.10
2019-03-06T05:23:42.026Z,178.38
2019-03-06T05:26:16.242Z,180.10
2019-03-06T05:28:50.319Z,168.35
2019-03-06T05:31:24.524Z,166.37
2019-03-06T05:33:58.796Z,164.95
2019-03-06T05:36:53.941Z,135.37
2019-03-06T05:39:28.335Z,147.43
2019-03-06T05:42:03.077Z,152.55
2019-03-06T05:44:37.381Z,147.40
2019-03-06T05:47:11.647Z,140.65
2019-03-06T05:49:46.896Z,129.35
2019-03-06T05:52:21.048Z,131.15
2019-03-06T05:54:55.134Z,120.28
2019-03-06T05:57:29.683Z,121.47
2019-03-06T06:00:04.105Z,130.95
2019-03-06T06:02:38.310Z,116.62
2019-03-06T06:05:14.323Z,101.95
2019-03-06T06:07:48.601Z,113.22
2019-03-06T06:10:22.812Z,110.35
2019-03-06T06:12:57.431Z,126.90
2019-03-06T06:15:31.885Z,107.85
2019-03-06T06:18:06.404Z,94.95
2019-03-06T06:20:40.681Z,97.25
2019-03-06T06:23:33.247Z,97.12
2019-03-06T06:26:07.907Z,92.25
2019-03-06T06:28:42.285Z,88.75
2019-03-06T06:31:16.397Z,87.72
2019-03-06T06:33:50.609Z,79.85
2019-03-06T06:36:24.728Z,82.10
2019-03-06T06:39:00.215Z,76.00
2019-03-06T06:41:35.549Z,85.57
2019-03-06T06:44:09.724Z,73.60
2019-03-06T06:46:43.817Z,75.12
2019-03-06T06:49:18.577Z,70.35
2019-03-06T06:52:22.437Z,66.40
2019-03-06T06:55:32.478Z,70.75
2019-03-06T06:58:35.694Z,66.90
2019-03-06T07:02:17.076Z,67.17
2019-03-06T07:05:43.455Z,66.77
2019-03-06T07:08:39.248Z,69.95
2019-03-06T07:11:22.403Z,64.77
2019-03-06T07:14:13.696Z,60.90
2019-03-06T07:17:27.612Z,62.90
2019-03-06T07:20:26.577Z,57.15
2019-03-06T07:23:20.264Z,67.08
2019-03-06T07:26:08.337Z,60.90
2019-03-06T07:29:01.455Z,70.35
2019-03-06T07:32:03.565Z,58.08
2019-03-06T07:34:50.647Z,60.70
2019-03-06T07:37:42.303Z,58.55
2019-03-06T07:40:23.195Z,59.98
2019-03-06T07:43:10.430Z,56.98
2019-03-06T07:46:02.224Z,48.78
2019-03-06T07:48:58.507Z,53.80
2019-03-06T07:51:39.140Z,57.10
2019-03-06T07:54:32.190Z,47.60
2019-03-06T07:57:37.726Z,44.48
2019-03-06T08:00:23.069Z,45.15
2019-03-06T08:03:05.702Z,45.05
2019-03-06T08:05:40.486Z,45.33
2019-03-06T08:08:14.859Z,47.73
2019-03-06T08:10:49.970Z,43.05
2019-03-06T08:13:55.444Z,47.27
2019-03-06T08:16:48.495Z,45.95
2019-03-06T08:19:41.353Z,40.23
2019-03-06T08:25:30.369Z,44.20
2019-03-06T08:28:04.782Z,45.55
2019-03-06T08:30:40.710Z,40.80
2019-03-06T08:33:18.201Z,41.88
2019-03-06T08:35:51.573Z,39.15
2019-03-06T08:38:25.849Z,38.13
2019-03-06T08:41:04.610Z,38.95
2019-03-06T08:43:37.494Z,34.70
2019-03-06T08:46:37.632Z,35.35
2019-03-06T08:49:30.436Z,37.73
2019-03-06T08:52:22.580Z,36.40
2019-03-06T08:55:11.104Z,35.17
2019-03-06T08:58:16.613Z,37.78
2019-03-06T09:01:13.104Z,36.23
2019-03-06T09:04:05.423Z,36.48
2019-03-06T09:06:50.500Z,37.03
2019-03-06T09:09:52.689Z,43.58
2019-03-06T09:12:48.110Z,58.50
2019-03-06T09:15:50.516Z,46.88
2019-03-06T09:18:46.864Z,57.90
2019-03-06T09:21:40.062Z,45.43
2019-03-06T09:24:38.739Z,61.20
2019-03-06T09:27:22.520Z,59.85
2019-03-06T09:30:30.756Z,59.20
2019-03-06T09:33:22.519Z,68.90
2019-03-06T09:36:13.747Z,56.23
2019-03-06T09:38:58.109Z,51.40
2019-03-06T09:41:47.335Z,50.70
2019-03-06T09:44:58.901Z,47.30
2019-03-06T09:47:45.453Z,56.73
2019-03-06T09:50:44.810Z,44.42
2019-03-06T09:53:41.143Z,36.08
2019-03-06T09:56:37.016Z,38.85
2019-03-06T09:59:36.061Z,37.33
2019-03-06T10:02:27.642Z,50.67
2019-03-06T10:05:18.902Z,36.42
2019-03-06T10:08:03.428Z,40.78
2019-03-06T10:10:50.435Z,34.43
2019-03-06T10:13:30.228Z,40.35
2019-03-06T10:16:23.474Z,34.95
2019-03-06T10:19:08.341Z,32.20
2019-03-06T10:21:42.830Z,36.85
2019-03-06T10:24:17.217Z,34.18
2019-03-06T10:26:51.711Z,36.58
2019-03-06T10:29:25.921Z,34.83
2019-03-06T10:32:00.364Z,32.88
2019-03-06T10:34:35.933Z,35.17
2019-03-06T10:37:11.267Z,31.93
2019-03-06T10:39:45.695Z,39.00
2019-03-06T10:42:20.468Z,39.63
2019-03-06T10:44:54.703Z,41.73
2019-03-06T10:47:28.978Z,105.78
2019-03-06T10:50:03.470Z,50.35
2019-03-06T10:52:37.659Z,44.90
2019-03-06T10:55:13.560Z,57.40
2019-03-06T10:57:48.119Z,47.58
2019-03-06T11:00:28.511Z,43.98
2019-03-06T11:03:02.903Z,42.93
2019-03-06T11:05:37.532Z,38.02
2019-03-06T11:08:12.117Z,44.40
2019-03-06T11:10:47.389Z,28.87
2019-03-06T11:13:21.909Z,31.55
2019-03-06T11:15:56.645Z,35.58
2019-03-06T11:18:31.178Z,36.38
2019-03-06T11:21:05.589Z,37.00
2019-03-06T11:23:40.220Z,38.30
2019-03-06T11:26:14.550Z,32.83
2019-03-06T11:28:48.801Z,31.82
2019-03-06T11:31:23.199Z,34.10
2019-03-06T11:33:57.532Z,32.42
2019-03-06T11:36:31.622Z,37.98
2019-03-06T11:39:07.444Z,47.65
2019-03-06T11:41:42.279Z,40.28
2019-03-06T11:44:17.193Z,29.60
2019-03-06T11:46:52.994Z,52.27
2019-03-06T11:49:27.286Z,37.88
2019-03-06T11:52:01.584Z,37.90
2019-03-06T11:54:36.134Z,42.10
2019-03-06T11:57:10.549Z,47.70
2019-03-06T11:59:44.746Z,46.18
2019-03-06T12:02:19.166Z,39.92
2019-03-06T12:04:53.372Z,48.35
2019-03-06T12:07:29.480Z,52.88
2019-03-06T12:10:04.540Z,50.92
2019-03-06T12:12:39.982Z,55.78
2019-03-06T12:15:15.173Z,49.60
2019-03-06T12:17:49.487Z,57.83
2019-03-06T12:20:23.802Z,52.80
2019-03-06T12:22:58.396Z,64.65
2019-03-06T12:25:32.867Z,71.07
2019-03-06T12:28:08.609Z,79.62
2019-03-06T12:30:43.586Z,64.47
2019-03-06T12:33:32.175Z,59.45
2019-03-06T12:36:06.496Z,59.35
2019-03-06T12:38:40.894Z,71.77
2019-03-06T12:41:16.509Z,51.42
2019-03-06T12:43:51.086Z,69.00
2019-03-06T12:46:27.671Z,58.38
2019-03-06T12:49:27.592Z,51.70
2019-03-06T12:52:03.454Z,40.80
2019-03-06T12:54:37.820Z,47.20
2019-03-06T12:57:12.212Z,38.23
2019-03-06T12:59:46.393Z,42.10
2019-03-06T13:02:20.959Z,58.10
2019-03-06T13:04:55.348Z,36.00
2019-03-06T13:07:29.979Z,41.60
2019-03-06T13:10:04.600Z,50.23
2019-03-06T13:12:39.161Z,40.45
2019-03-06T13:15:16.335Z,35.90
2019-03-06T13:17:51.006Z,35.30
2019-03-06T13:20:25.736Z,28.87
2019-03-06T13:23:00.945Z,35.78
2019-03-06T13:25:35.464Z,33.13
2019-03-06T13:28:10.036Z,33.88
2019-03-06T13:30:44.713Z,28.35
2019-03-06T13:33:38.459Z,33.15
2019-03-06T13:36:13.222Z,29.00
2019-03-06T13:38:54.984Z,28.23
2019-03-06T13:41:24.973Z,33.55
2019-03-06T13:44:00.739Z,37.65
2019-03-06T13:46:35.674Z,30.32
2019-03-06T13:49:10.355Z,28.65
2019-03-06T13:51:45.858Z,25.20
2019-03-06T13:54:20.201Z,32.23
2019-03-06T13:56:56.105Z,27.75
2019-03-06T13:59:30.902Z,29.77
2019-03-06T14:02:05.482Z,25.12
2019-03-06T14:04:39.902Z,26.02
2019-03-06T14:07:14.525Z,29.95
2019-03-06T14:09:48.805Z,23.75
2019-03-06T14:12:23.307Z,25.17
2019-03-06T14:14:57.781Z,24.30
2019-03-06T14:17:32.330Z,28.12
2019-03-06T14:20:06.895Z,25.95
2019-03-06T14:22:41.449Z,25.00
2019-03-06T14:25:16.267Z,24.45
2019-03-06T14:27:50.779Z,26.07
2019-03-06T14:30:25.564Z,22.35
2019-03-06T14:33:00.476Z,25.40
2019-03-06T14:35:35.021Z,22.30
2019-03-06T14:38:10.377Z,24.87
2019-03-06T14:40:45.451Z,23.10
2019-03-06T14:43:20.789Z,26.20
2019-03-06T14:45:59.487Z,26.75
2019-03-06T14:48:34.265Z,25.77
2019-03-06T14:51:09.704Z,23.83
2019-03-06T14:53:44.378Z,24.37
2019-03-06T14:56:18.930Z,28.05
2019-03-06T14:58:53.440Z,22.45
2019-03-06T15:01:29.711Z,23.95
2019-03-06T15:04:04.146Z,20.85
2019-03-06T15:06:38.673Z,27.07
2019-03-06T15:09:33.429Z,21.20
2019-03-06T15:12:08.053Z,23.67
2019-03-06T15:14:42.909Z,21.07
2019-03-06T15:17:17.564Z,21.52
2019-03-06T15:19:52.137Z,23.70
2019-03-06T15:22:26.682Z,26.75
2019-03-06T15:25:01.305Z,31.25
2019-03-06T15:27:35.974Z,25.82
2019-03-06T15:30:11.888Z,26.82
2019-03-06T15:32:46.495Z,24.30
2019-03-06T15:35:22.963Z,22.85
2019-03-06T15:37:58.759Z,23.10
2019-03-06T15:40:33.994Z,24.70
2019-03-06T15:43:10.868Z,28.85
2019-03-06T15:45:46.921Z,34.78
2019-03-06T15:48:21.797Z,30.92
2019-03-06T15:50:56.662Z,28.20
2019-03-06T15:53:31.261Z,26.27
2019-03-06T15:56:05.719Z,32.48
2019-03-06T15:58:40.773Z,27.82
2019-03-06T16:01:15.339Z,29.72
2019-03-06T16:03:49.801Z,25.70
2019-03-06T16:06:25.396Z,29.50
2019-03-06T16:09:01.601Z,27.45
2019-03-06T16:11:37.559Z,28.55
2019-03-06T16:14:12.274Z,24.72
2019-03-06T16:16:46.640Z,28.60
2019-03-06T16:19:22.246Z,26.85
2019-03-06T16:21:56.665Z,31.17
2019-03-06T16:24:30.963Z,29.32
2019-03-06T16:27:06.492Z,29.67
2019-03-06T16:29:41.021Z,35.80
2019-03-06T16:32:16.603Z,48.13
2019-03-06T16:34:51.373Z,46.00
2019-03-06T16:37:25.968Z,58.35
2019-03-06T16:40:00.638Z,54.95
2019-03-06T16:42:35.508Z,68.22
2019-03-06T16:45:10.314Z,49.13
2019-03-06T16:47:44.990Z,56.58
2019-03-06T16:50:20.097Z,70.32
2019-03-06T16:52:54.602Z,70.17
2019-03-06T16:55:30.422Z,73.83
2019-03-06T16:58:05.649Z,67.80
2019-03-06T17:00:40.449Z,70.87
2019-03-06T17:03:14.836Z,62.75
2019-03-06T17:05:49.430Z,66.50
2019-03-06T17:08:24.293Z,64.32
2019-03-06T17:10:59.057Z,69.82
2019-03-06T17:13:33.622Z,72.67
2019-03-06T17:16:08.301Z,63.10
2019-03-06T17:18:42.633Z,58.90
2019-03-06T17:21:16.934Z,60.90
2019-03-06T17:23:51.429Z,62.03
2019-03-06T17:26:26.071Z,66.35
2019-03-06T17:29:02.146Z,57.73
2019-03-06T17:31:36.500Z,56.63
2019-03-06T17:34:11.072Z,62.10
2019-03-06T17:36:45.592Z,56.80
2019-03-06T17:39:21.812Z,64.60
2019-03-06T17:41:56.274Z,60.28
2019-03-06T17:44:31.501Z,53.38
2019-03-06T17:47:06.831Z,54.18
2019-03-06T17:49:41.004Z,57.08
2019-03-06T17:52:16.949Z,54.13
2019-03-06T17:54:51.148Z,57.88
2019-03-06T17:57:25.367Z,57.27
2019-03-06T17:59:59.659Z,58.10
2019-03-06T18:02:34.178Z,59.38
2019-03-06T18:05:09.186Z,52.27
2019-03-06T18:07:43.486Z,56.85
2019-03-06T18:10:19.456Z,55.10
2019-03-06T18:12:53.649Z,55.67
2019-03-06T18:15:28.530Z,61.75
2019-03-06T18:18:02.820Z,54.65
2019-03-06T18:20:37.297Z,61.70
2019-03-06T18:23:11.996Z,56.00
2019-03-06T18:29:27.449Z,59.75
2019-03-06T18:32:01.888Z,56.85
2019-03-06T18:34:36.398Z,58.58
2019-03-06T18:37:10.609Z,57.55
2019-03-06T18:39:45.058Z,55.00
2019-03-06T18:42:19.315Z,55.00
2019-03-06T18:44:54.188Z,56.58
2019-03-06T18:47:29.608Z,62.27
2019-03-06T18:50:03.937Z,61.35
2019-03-06T18:52:38.576Z,59.55
2019-03-06T18:55:13.023Z,58.70
2019-03-06T18:57:47.532Z,64.58
2019-03-06T19:00:23.098Z,60.73
2019-03-06T19:02:57.308Z,59.48
2019-03-06T19:05:31.619Z,70.80
2019-03-06T19:08:06.087Z,66.55
2019-03-06T19:10:40.737Z,60.73
2019-03-06T19:13:14.935Z,59.63
2019-03-06T19:15:49.515Z,64.45
2019-03-06T19:18:23.791Z,60.85
2019-03-06T19:20:58.313Z,61.85
2019-03-06T19:23:32.487Z,59.83
2019-03-06T19:26:07.021Z,68.90
2019-03-06T19:28:41.292Z,69.12
2019-03-06T19:31:15.500Z,62.67
2019-03-06T19:33:49.899Z,61.98
2019-03-06T19:36:24.294Z,65.57
2019-03-06T19:38:58.551Z,59.53
2019-03-06T19:41:32.889Z,62.80
2019-03-06T19:44:07.233Z,71.28
2019-03-06T19:46:41.440Z,62.50
2019-03-06T19:49:15.862Z,65.65
2019-03-06T19:51:51.693Z,66.75
2019-03-06T19:54:27.364Z,60.40
2019-03-06T19:57:01.532Z,67.65
2019-03-06T19:59:35.574Z,65.45
2019-03-06T20:02:09.955Z,65.35
2019-03-06T20:04:44.301Z,62.48
2019-03-06T20:07:18.523Z,68.22
2019-03-06T20:09:52.817Z,61.53
2019-03-06T20:12:27.178Z,64.47
2019-03-06T20:15:01.645Z,64.62
2019-03-06T20:17:36.362Z,62.38
2019-03-06T20:20:10.837Z,69.97
2019-03-06T20:22:45.147Z,61.18
2019-03-06T20:25:20.173Z,62.38
2019-03-06T20:27:54.532Z,61.45
2019-03-06T20:30:29.351Z,64.67
2019-03-06T20:33:03.540Z,60.00
2019-03-06T20:35:38.858Z,64.42
2019-03-06T20:38:13.059Z,61.50
2019-03-06T20:40:47.300Z,60.38
2019-03-06T20:43:22.639Z,61.33
2019-03-06T20:45:56.982Z,64.12
2019-03-06T20:48:31.250Z,62.78
2019-03-06T20:51:05.695Z,65.90
2019-03-06T20:53:39.986Z,60.80
2019-03-06T20:56:14.245Z,63.98
2019-03-06T20:58:49.759Z,68.50
2019-03-06T21:01:24.540Z,66.70
2019-03-06T21:03:58.823Z,63.63
2019-03-06T21:06:34.675Z,67.12
2019-03-06T21:09:09.800Z,66.62
2019-03-06T21:11:44.288Z,70.32
2019-03-06T21:14:19.458Z,69.03
2019-03-06T21:16:53.854Z,70.30
2019-03-06T21:19:27.753Z,64.15
2019-03-06T21:22:02.238Z,66.70
2019-03-06T21:24:37.678Z,62.50
2019-03-06T21:27:12.212Z,66.45
2019-03-06T21:29:46.262Z,67.03
2019-03-06T21:32:21.899Z,66.67
2019-03-06T21:34:56.000Z,64.42
2019-03-06T21:37:30.179Z,70.57
2019-03-06T21:40:04.624Z,64.30
2019-03-06T21:42:38.792Z,70.42
2019-03-06T21:45:13.167Z,72.58
2019-03-06T21:47:47.576Z,70.52
2019-03-06T21:50:21.686Z,60.98
2019-03-06T21:52:56.058Z,62.27
2019-03-06T21:55:30.282Z,70.85
2019-03-06T21:58:04.448Z,63.83
2019-03-06T22:00:38.872Z,60.90
2019-03-06T22:03:13.377Z,65.57
2019-03-06T22:05:48.000Z,61.15
2019-03-06T22:08:22.095Z,65.12
2019-03-06T22:10:56.581Z,60.12
2019-03-06T22:13:31.161Z,68.02
2019-03-06T22:16:06.247Z,66.87
2019-03-06T22:18:40.489Z,65.08
2019-03-06T22:21:14.884Z,70.52
2019-03-06T22:23:49.017Z,73.92
2019-03-06T22:26:23.370Z,64.62
2019-03-06T22:28:55.835Z,60.67
2019-03-06T22:31:30.209Z,58.28
2019-03-06T22:34:04.441Z,67.85
2019-03-06T22:36:38.572Z,64.05
2019-03-06T22:39:13.010Z,65.47
2019-03-06T22:41:47.377Z,62.48
2019-03-06T22:44:21.465Z,61.75
2019-03-06T22:46:55.573Z,65.08
2019-03-06T22:49:29.540Z,56.42
2019-03-06T22:52:03.485Z,64.70
2019-03-06T22:54:37.736Z,57.88
2019-03-06T22:57:12.038Z,58.02
2019-03-06T22:59:46.429Z,59.53
2019-03-06T23:02:22.827Z,60.55
2019-03-06T23:04:57.983Z,59.03
2019-03-06T23:07:32.389Z,60.17
2019-03-06T23:10:07.081Z,59.45
2019-03-06T23:12:42.502Z,63.65
2019-03-06T23:15:16.879Z,54.23
2019-03-06T23:17:51.271Z,59.53
2019-03-06T23:20:25.573Z,63.55
2019-03-06T23:22:59.955Z,58.17
2019-03-06T23:25:34.339Z,64.87
2019-03-06T23:28:08.911Z,62.20
2019-03-06T23:30:43.035Z,63.63
2019-03-06T23:33:17.569Z,55.00
2019-03-06T23:35:51.647Z,53.78
2019-03-06T23:38:25.808Z,53.40
2019-03-06T23:41:00.203Z,54.85
2019-03-06T23:43:34.411Z,58.87
2019-03-06T23:46:08.651Z,55.10
2019-03-06T23:48:43.116Z,53.25
2019-03-06T23:51:47.879Z,56.37
2019-03-06T23:54:22.238Z,59.13
2019-03-06T23:56:56.728Z,52.40
2019-03-06T23:59:31.278Z,52.50
